Time;durP1;ratioP1;P1;durP2;ratioP2;P2;SDS_P1;SDS_P2;PMS_P1;PMS_P2;Temp;Humidity;BMP_temperature;BMP_pressure;BME280_temperature;BME280_humidity;BME280_pressure;Samples;Min_cycle;Max_cycle;Signal;HPM_P1;HPM_P2
2023/11/21 00:01:04;;;;;;;9.50;8.50;;;;;;;-1.11;100.00;98521.89;109633;1250;58890;-66
2023/11/21 00:03:31;;;;;;;9.00;8.10;;;;;;;-1.13;100.00;98523.41;109644;1250;73373;-63
2023/11/21 00:05:57;;;;;;;9.00;8.10;;;;;;;-1.13;100.00;98522.20;109672;1251;66716;-66
2023/11/21 00:08:24;;;;;;;10.30;7.60;;;;;;;-1.13;100.00;98527.77;109684;1250;73076;-65
2023/11/21 00:10:51;;;;;;;7.30;6.50;;;;;;;-1.14;100.00;98530.79;109615;1251;59593;-65
2023/11/21 00:13:17;;;;;;;8.30;7.40;;;;;;;-1.17;100.00;98535.57;109613;1250;60345;-66
2023/11/21 00:15:44;;;;;;;7.60;6.90;;;;;;;-1.19;100.00;98534.67;109646;1250;73389;-62
2023/11/21 00:18:11;;;;;;;7.40;6.70;;;;;;;-1.20;100.00;98531.27;109717;1250;66703;-62
2023/11/21 00:20:37;;;;;;;7.90;7.00;;;;;;;-1.23;100.00;98532.38;109658;1249;72451;-66
2023/11/21 00:23:04;;;;;;;7.60;6.90;;;;;;;-1.24;100.00;98530.02;109700;1249;59776;-65
2023/11/21 00:25:33;;;;;;;7.90;7.10;;;;;;;-1.26;100.00;98527.67;109635;1250;59018;-63
2023/11/21 00:28:01;;;;;;;9.40;7.60;;;;;;;-1.26;100.00;98528.27;109648;1250;74435;-67
2023/11/21 00:30:31;;;;;;;7.70;6.90;;;;;;;-1.26;100.00;98523.38;109612;1250;67052;-66
2023/11/21 00:32:59;;;;;;;8.30;7.00;;;;;;;-1.26;100.00;98517.77;109652;1251;72520;-63
2023/11/21 00:35:26;;;;;;;7.10;6.40;;;;;;;-1.26;100.00;98513.11;109560;1250;61188;-65
2023/11/21 00:37:54;;;;;;;8.80;6.40;;;;;;;-1.25;100.00;98507.81;109543;1251;59053;-65
2023/11/21 00:40:22;;;;;;;9.40;7.50;;;;;;;-1.26;100.00;98504.06;109624;1250;74432;-65
2023/11/21 00:42:49;;;;;;;8.50;7.60;;;;;;;-1.27;100.00;98501.15;109575;1251;68475;-63
2023/11/21 00:45:15;;;;;;;10.80;9.50;;;;;;;-1.28;100.00;98501.27;109597;1251;72540;-65
2023/11/21 00:47:42;;;;;;;9.80;8.90;;;;;;;-1.30;100.00;98506.08;109622;1250;60931;-66
2023/11/21 00:50:09;;;;;;;9.90;8.20;;;;;;;-1.32;100.00;98505.42;109639;1251;60082;-62
2023/11/21 00:52:36;;;;;;;13.00;8.80;;;;;;;-1.33;100.00;98506.21;109695;1250;74674;-63
2023/11/21 00:55:04;;;;;;;9.70;8.30;;;;;;;-1.33;100.00;98507.04;109648;1250;66417;-63
2023/11/21 00:57:30;;;;;;;9.90;8.80;;;;;;;-1.32;100.00;98507.66;109622;1250;70422;-65
2023/11/21 00:59:57;;;;;;;10.00;8.70;;;;;;;-1.31;100.00;98506.39;109663;1250;59042;-66
2023/11/21 01:02:23;;;;;;;9.70;8.80;;;;;;;-1.31;100.00;98502.88;109615;1250;58997;-62
2023/11/21 01:04:50;;;;;;;11.20;9.30;;;;;;;-1.30;100.00;98501.23;109708;1250;73892;-63
2023/11/21 01:07:17;;;;;;;10.60;9.50;;;;;;;-1.29;100.00;98501.52;109637;1250;66366;-65
2023/11/21 01:09:44;;;;;;;11.50;10.30;;;;;;;-1.29;100.00;98501.15;109602;1250;71190;-65
2023/11/21 01:12:11;;;;;;;11.70;10.30;;;;;;;-1.30;100.00;98504.15;109646;1250;59537;-66
2023/11/21 01:14:37;;;;;;;11.60;10.20;;;;;;;-1.41;100.00;98511.70;109628;1250;59995;-67
2023/11/21 01:17:05;;;;;;;11.40;10.30;;;;;;;-1.33;100.00;98518.54;109679;1250;74512;-66
2023/11/21 01:19:32;;;;;;;12.70;10.40;;;;;;;-1.40;100.00;98518.25;109646;1249;66828;-62
2023/11/21 01:21:58;;;;;;;13.40;10.50;;;;;;;-1.31;100.00;98518.40;109640;1250;70177;-63
2023/11/21 01:24:25;;;;;;;11.40;10.30;;;;;;;-1.29;100.00;98515.55;109628;1251;59522;-66
2023/11/21 01:26:52;;;;;;;12.10;10.80;;;;;;;-1.27;100.00;98513.86;109641;1250;59127;-64
2023/11/21 01:29:18;;;;;;;12.00;10.70;;;;;;;-1.27;100.00;98515.58;109560;1251;74585;-64
2023/11/21 01:31:45;;;;;;;11.90;10.70;;;;;;;-1.26;100.00;98512.42;109665;1250;67954;-63
2023/11/21 01:34:11;;;;;;;12.30;9.70;;;;;;;-1.25;100.00;98515.64;109649;1250;72533;-67
2023/11/21 01:36:38;;;;;;;12.50;10.00;;;;;;;-1.22;100.00;98513.01;109606;1250;59638;-65
2023/11/21 01:39:08;;;;;;;13.50;11.00;;;;;;;-1.20;100.00;98512.79;109569;1250;58859;-65
2023/11/21 01:41:35;;;;;;;11.60;10.40;;;;;;;-1.17;100.00;98519.19;109629;1251;74430;-66
2023/11/21 01:44:02;;;;;;;12.70;10.40;;;;;;;-1.16;100.00;98516.16;109559;1254;66276;-64
2023/11/21 01:46:29;;;;;;;13.10;9.70;;;;;;;-1.16;100.00;98516.02;109655;1249;72766;-65
2023/11/21 01:48:56;;;;;;;15.30;11.20;;;;;;;-1.15;100.00;98523.95;109594;1251;61112;-65
2023/11/21 01:51:22;;;;;;;15.60;12.00;;;;;;;-1.15;100.00;98522.02;109601;1250;58909;-64
2023/11/21 01:53:49;;;;;;;12.90;10.90;;;;;;;-1.13;100.00;98522.70;109454;1251;73447;-64
2023/11/21 01:56:16;;;;;;;12.80;11.30;;;;;;;-1.10;100.00;98524.71;109554;1251;67910;-65
2023/11/21 01:58:43;;;;;;;12.20;10.90;;;;;;;-1.07;100.00;98527.93;109376;1251;71265;-66
2023/11/21 02:01:09;;;;;;;13.10;11.50;;;;;;;-1.05;100.00;98530.59;109523;1250;60859;-64
2023/11/21 02:03:36;;;;;;;12.90;11.00;;;;;;;-1.03;100.00;98531.20;109630;1251;60140;-64
2023/11/21 02:06:03;;;;;;;16.00;12.30;;;;;;;-1.04;100.00;98527.55;109520;1250;74493;-67
2023/11/21 02:08:29;;;;;;;14.40;12.70;;;;;;;-1.05;100.00;98525.71;109575;1251;67946;-66
2023/11/21 02:10:57;;;;;;;14.70;11.30;;;;;;;-1.06;100.00;98528.80;109626;1250;58915;-66
2023/11/21 02:13:23;;;;;;;13.40;11.50;;;;;;;-1.08;100.00;98530.31;109639;1250;61055;-65
2023/11/21 02:15:52;;;;;;;13.00;11.20;;;;;;;-1.07;100.00;98531.24;109632;1250;58877;-65
2023/11/21 02:18:19;;;;;;;11.60;10.30;;;;;;;-1.07;100.00;98528.48;109553;1251;74663;-65
2023/11/21 02:20:47;;;;;;;16.70;11.80;;;;;;;-1.08;100.00;98528.39;109501;1251;67847;-65
2023/11/21 02:23:14;;;;;;;12.10;10.30;;;;;;;-1.09;100.00;98532.98;109549;1251;70286;-65
2023/11/21 02:25:42;;;;;;;13.90;11.50;;;;;;;-1.09;100.00;98533.91;109584;1250;60044;-64
2023/11/21 02:28:12;;;;;;;12.00;10.70;;;;;;;-1.11;100.00;98530.89;109644;1250;60120;-65
2023/11/21 02:30:39;;;;;;;13.40;11.60;;;;;;;-1.11;100.00;98527.06;109667;1251;75862;-68
2023/11/21 02:33:07;;;;;;;15.40;12.00;;;;;;;-1.11;100.00;98527.94;109655;1250;58976;-65
2023/11/21 02:35:34;;;;;;;11.90;10.60;;;;;;;-1.10;100.00;98529.30;109588;1251;73457;-64
2023/11/21 02:38:01;;;;;;;12.10;10.40;;;;;;;-1.10;100.00;98527.56;109628;1250;61249;-66
2023/11/21 02:40:29;;;;;;;11.90;10.00;;;;;;;-1.10;100.00;98530.48;109624;1250;60090;-66
2023/11/21 02:42:58;;;;;;;11.80;10.60;;;;;;;-1.09;100.00;98530.38;109545;1251;74998;-65
2023/11/21 02:45:25;;;;;;;15.40;11.00;;;;;;;-1.08;100.00;98530.52;109671;1250;65624;-67
2023/11/21 02:47:56;;;;;;;13.40;11.00;;;;;;;-1.07;100.00;98534.27;109568;1251;71501;-65
2023/11/21 02:50:23;;;;;;;13.70;11.70;;;;;;;-1.07;100.00;98538.60;109624;1254;59442;-66
2023/11/21 02:52:51;;;;;;;12.90;11.20;;;;;;;-1.06;100.00;98539.06;109524;1250;58878;-64
2023/11/21 02:55:18;;;;;;;15.40;10.90;;;;;;;-1.06;100.00;98536.78;109624;1250;74351;-66
2023/11/21 02:57:44;;;;;;;11.70;10.30;;;;;;;-1.06;100.00;98541.16;109548;1250;66671;-65
2023/11/21 03:00:12;;;;;;;14.70;11.20;;;;;;;-1.06;100.00;98543.02;109624;1250;59020;-67
2023/11/21 03:02:39;;;;;;;15.90;11.30;;;;;;;-1.06;100.00;98545.16;109580;1250;59798;-67
2023/11/21 03:05:08;;;;;;;13.30;11.10;;;;;;;-1.06;100.00;98548.63;109546;1251;58932;-65
2023/11/21 03:07:36;;;;;;;13.50;10.50;;;;;;;-1.09;100.00;98549.89;109628;1250;74437;-64
2023/11/21 03:10:04;;;;;;;13.70;10.40;;;;;;;-1.04;100.00;98553.33;109583;1251;66446;-63
2023/11/21 03:12:31;;;;;;;14.20;11.00;;;;;;;-1.02;100.00;98554.75;109603;1250;72708;-63
2023/11/21 03:14:57;;;;;;;12.60;10.20;;;;;;;-1.00;100.00;98556.48;109608;1250;58984;-64
2023/11/21 03:17:24;;;;;;;12.10;9.50;;;;;;;-0.99;100.00;98560.58;109587;1251;59203;-63
2023/11/21 03:19:52;;;;;;;12.90;10.70;;;;;;;-0.98;100.00;98558.79;109668;1253;74864;-66
2023/11/21 03:22:19;;;;;;;13.30;10.90;;;;;;;-0.98;100.00;98558.08;109678;1250;67723;-66
2023/11/21 03:24:45;;;;;;;12.40;10.40;;;;;;;-1.00;100.00;98553.02;109629;1250;72445;-68
2023/11/21 03:27:12;;;;;;;12.80;11.20;;;;;;;-1.00;100.00;98556.48;109621;1250;60857;-63
2023/11/21 03:29:39;;;;;;;12.90;11.10;;;;;;;-0.99;100.00;98558.30;109700;1250;60254;-67
2023/11/21 03:32:06;;;;;;;14.00;10.70;;;;;;;-0.99;100.00;98561.09;109523;1251;73113;-64
2023/11/21 03:34:33;;;;;;;12.90;10.40;;;;;;;-1.00;100.00;98564.88;109587;1251;68030;-66
2023/11/21 03:37:00;;;;;;;11.50;10.00;;;;;;;-1.00;100.00;98570.42;109609;1250;72720;-67
2023/11/21 03:39:27;;;;;;;13.90;11.40;;;;;;;-0.99;100.00;98572.10;109589;1250;62141;-64
2023/11/21 03:41:53;;;;;;;12.60;11.10;;;;;;;-0.97;100.00;98574.38;109656;1250;60224;-64
2023/11/21 03:44:20;;;;;;;12.70;10.80;;;;;;;-0.95;100.00;98575.06;109668;1250;59203;-63
2023/11/21 03:46:46;;;;;;;12.30;11.00;;;;;;;-0.94;100.00;98573.06;109669;1251;58895;-64
2023/11/21 03:49:13;;;;;;;14.60;12.20;;;;;;;-0.94;100.00;98570.78;109598;1253;72453;-64
2023/11/21 03:51:41;;;;;;;14.50;11.40;;;;;;;-0.95;100.00;98570.36;109626;1251;59615;-65
2023/11/21 03:54:07;;;;;;;13.00;10.90;;;;;;;-0.96;100.00;98569.70;109631;1251;59051;-65
2023/11/21 03:56:34;;;;;;;12.30;11.00;;;;;;;-0.96;100.00;98575.65;109662;1251;59957;-66
2023/11/21 03:59:01;;;;;;;13.40;11.00;;;;;;;-0.96;100.00;98573.59;109642;1251;59249;-64
2023/11/21 04:01:27;;;;;;;12.60;9.90;;;;;;;-0.96;100.00;98575.14;109609;1251;59023;-62
2023/11/21 04:03:54;;;;;;;13.80;12.00;;;;;;;-0.96;100.00;98578.79;109610;1251;60877;-66
2023/11/21 04:06:20;;;;;;;12.50;11.00;;;;;;;-0.96;100.00;98578.23;109669;1251;59987;-68
2023/11/21 04:08:47;;;;;;;16.30;12.20;;;;;;;-0.97;100.00;98576.59;109629;1251;74689;-63
2023/11/21 04:11:13;;;;;;;15.40;11.70;;;;;;;-0.97;100.00;98578.04;109655;1250;66531;-66
2023/11/21 04:13:40;;;;;;;16.70;13.80;;;;;;;-1.01;100.00;98576.20;109642;1250;59019;-64
2023/11/21 04:16:07;;;;;;;16.00;12.30;;;;;;;-1.02;100.00;98573.55;109630;1250;59909;-65
2023/11/21 04:18:36;;;;;;;17.10;12.90;;;;;;;-1.03;100.00;98570.50;109622;1251;58935;-63
2023/11/21 04:21:02;;;;;;;14.90;12.80;;;;;;;-1.03;100.00;98568.27;109668;1251;73174;-68
2023/11/21 04:23:30;;;;;;;19.30;12.90;;;;;;;-1.03;100.00;98568.56;109686;1251;68012;-62
2023/11/21 04:25:57;;;;;;;17.60;13.40;;;;;;;-1.04;100.00;98568.92;109580;1251;72551;-64
2023/11/21 04:28:24;;;;;;;18.60;12.80;;;;;;;-1.04;100.00;98571.58;109590;1250;61113;-66
2023/11/21 04:30:51;;;;;;;18.90;13.10;;;;;;;-1.04;100.00;98578.00;109638;1251;60390;-66
2023/11/21 04:33:17;;;;;;;17.10;13.90;;;;;;;-1.04;100.00;98582.19;109661;1250;74642;-63
2023/11/21 04:35:44;;;;;;;21.10;15.10;;;;;;;-1.03;100.00;98582.62;109675;1250;67539;-69
2023/11/21 04:38:11;;;;;;;19.80;14.80;;;;;;;-1.02;100.00;98582.95;109666;1251;72445;-67
2023/11/21 04:40:38;;;;;;;17.20;14.10;;;;;;;-1.03;100.00;98581.05;109654;1251;61055;-65
2023/11/21 04:43:04;;;;;;;19.10;15.30;;;;;;;-1.01;100.00;98581.95;109647;1251;58889;-65
2023/11/21 04:45:31;;;;;;;18.60;15.50;;;;;;;-1.00;100.00;98583.98;109658;1251;74867;-64
2023/11/21 04:47:58;;;;;;;22.70;15.90;;;;;;;-1.02;100.00;98588.80;109649;1251;66491;-68
2023/11/21 04:50:27;;;;;;;18.60;14.20;;;;;;;-1.00;100.00;98583.67;109616;1250;59000;-67
2023/11/21 04:52:53;;;;;;;18.40;13.80;;;;;;;-0.99;100.00;98584.94;109612;1254;63145;-67
2023/11/21 04:55:20;;;;;;;16.70;13.80;;;;;;;-0.97;100.00;98587.39;109589;1254;59296;-66
2023/11/21 04:57:47;;;;;;;19.70;14.90;;;;;;;-0.95;100.00;98586.58;109624;1250;73575;-67
2023/11/21 05:00:13;;;;;;;24.80;13.80;;;;;;;-0.93;100.00;98588.69;109653;1250;67716;-69
2023/11/21 05:02:41;;;;;;;20.80;15.10;;;;;;;-0.91;100.00;98589.67;109604;1251;72460;-65
2023/11/21 05:05:10;;;;;;;18.80;15.00;;;;;;;-0.88;100.00;98589.81;109520;1251;60991;-68
2023/11/21 05:07:37;;;;;;;18.60;14.10;;;;;;;-0.86;100.00;98589.81;109617;1251;60216;-64
2023/11/21 05:10:10;;;;;;;21.70;15.50;;;;;;;-0.84;100.00;98588.64;109664;1250;73717;-66
2023/11/21 05:12:38;;;;;;;19.10;15.30;;;;;;;-0.84;100.00;98592.42;109613;1250;66581;-66
2023/11/21 05:15:11;;;;;;;21.30;15.80;;;;;;;-0.83;100.00;98593.77;109634;1250;71581;-65
2023/11/21 05:17:39;;;;;;;19.50;15.80;;;;;;;-0.82;100.00;98597.88;109560;1250;60052;-66
2023/11/21 05:20:09;;;;;;;19.60;15.20;;;;;;;-0.83;100.00;98592.92;109679;1250;59629;-67
2023/11/21 05:22:36;;;;;;;20.10;15.40;;;;;;;-0.82;100.00;98597.13;109650;1251;73502;-67
2023/11/21 05:25:03;;;;;;;16.80;14.30;;;;;;;-0.93;100.00;98601.90;109607;1251;66267;-61
2023/11/21 05:27:30;;;;;;;20.00;15.40;;;;;;;-0.95;100.00;98607.63;109655;1251;71816;-68
2023/11/21 05:29:57;;;;;;;20.70;16.50;;;;;;;-1.02;100.00;98606.91;109600;1250;61218;-74
2023/11/21 05:32:24;;;;;;;19.60;15.90;;;;;;;-0.89;100.00;98605.70;109597;1251;58973;-69
2023/11/21 05:34:52;;;;;;;18.60;16.40;;;;;;;-0.84;100.00;98611.61;109646;1251;74605;-70
2023/11/21 05:37:18;;;;;;;19.40;15.60;;;;;;;-0.82;100.00;98616.16;109562;1251;68207;-68
2023/11/21 05:39:45;;;;;;;19.80;15.30;;;;;;;-0.81;100.00;98619.55;109540;1250;71202;-65
2023/11/21 05:42:11;;;;;;;18.20;15.40;;;;;;;-0.90;100.00;98620.83;109652;1250;59101;-63
2023/11/21 05:44:38;;;;;;;20.70;16.60;;;;;;;-0.91;100.00;98625.00;109590;1250;58948;-66
2023/11/21 05:47:06;;;;;;;19.90;16.20;;;;;;;-0.81;100.00;98631.38;109572;1251;73913;-64
2023/11/21 05:49:34;;;;;;;17.60;14.40;;;;;;;-0.84;100.00;98633.87;109631;1251;66675;-64
2023/11/21 05:52:00;;;;;;;19.50;15.00;;;;;;;-1.04;100.00;98637.92;109588;1251;72667;-66
2023/11/21 05:54:29;;;;;;;17.70;15.20;;;;;;;-0.99;100.00;98643.40;109657;1250;61195;-63
2023/11/21 05:56:55;;;;;;;18.30;15.80;;;;;;;-0.78;100.00;98645.58;109648;1251;58900;-62
2023/11/21 05:59:22;;;;;;;19.00;16.10;;;;;;;-0.74;100.00;98645.13;109684;1251;73175;-62
2023/11/21 06:01:49;;;;;;;16.00;14.30;;;;;;;-0.70;100.00;98645.67;109681;1251;65820;-64
2023/11/21 06:04:16;;;;;;;19.20;16.00;;;;;;;-0.68;100.00;98648.67;109661;1251;72103;-67
2023/11/21 06:06:43;;;;;;;19.00;14.80;;;;;;;-0.67;100.00;98648.39;109636;1251;59020;-63
2023/11/21 06:09:09;;;;;;;21.90;16.80;;;;;;;-0.65;100.00;98651.02;109631;1251;60020;-63
2023/11/21 06:11:36;;;;;;;19.70;15.50;;;;;;;-0.65;100.00;98653.27;109558;1250;74737;-63
2023/11/21 06:14:03;;;;;;;17.50;15.60;;;;;;;-0.66;100.00;98657.65;109652;1250;67723;-64
2023/11/21 06:16:30;;;;;;;16.40;14.60;;;;;;;-0.63;100.00;98660.95;109633;1250;71545;-64
2023/11/21 06:18:56;;;;;;;18.60;15.00;;;;;;;-0.60;100.00;98664.55;109636;1250;60345;-65
2023/11/21 06:21:23;;;;;;;18.50;15.50;;;;;;;-0.58;100.00;98662.50;109618;1251;59016;-63
2023/11/21 06:23:50;;;;;;;20.10;15.00;;;;;;;-0.57;100.00;98664.13;109627;1251;74445;-61
2023/11/21 06:26:20;;;;;;;15.60;13.90;;;;;;;-0.56;100.00;98657.81;109646;1250;66811;-69
2023/11/21 06:28:47;;;;;;;15.20;13.60;;;;;;;-0.58;100.00;98659.86;109637;1251;72680;-67
2023/11/21 06:31:14;;;;;;;17.20;14.60;;;;;;;-0.58;100.00;98658.48;109583;1251;59501;-68
2023/11/21 06:33:41;;;;;;;17.40;14.70;;;;;;;-0.56;100.00;98660.73;109607;1251;58838;-66
2023/11/21 06:36:08;;;;;;;15.30;13.60;;;;;;;-0.68;100.00;98666.02;109508;1251;74632;-65
2023/11/21 06:38:34;;;;;;;18.10;15.00;;;;;;;-0.54;100.00;98672.42;109694;1251;67666;-67
2023/11/21 06:41:04;;;;;;;18.10;15.30;;;;;;;-0.51;100.00;98675.17;109631;1251;58959;-65
2023/11/21 06:43:31;;;;;;;17.80;14.30;;;;;;;-0.50;100.00;98674.94;109633;1251;59409;-66
2023/11/21 06:45:58;;;;;;;16.90;15.10;;;;;;;-0.59;100.00;98681.20;109680;1251;60105;-65
2023/11/21 06:48:25;;;;;;;18.00;15.70;;;;;;;-0.50;100.00;98684.86;109585;1251;74488;-66
2023/11/21 06:50:52;;;;;;;19.80;15.60;;;;;;;-0.47;100.00;98685.98;109682;1251;66884;-66
2023/11/21 06:53:19;;;;;;;18.30;16.20;;;;;;;-0.47;100.00;98684.73;109613;1250;72701;-68
2023/11/21 06:55:45;;;;;;;16.20;14.50;;;;;;;-0.51;100.00;98686.30;109653;1250;61108;-67
2023/11/21 06:58:14;;;;;;;18.10;14.50;;;;;;;-0.74;100.00;98687.20;109601;1251;58902;-69
2023/11/21 07:00:45;;;;;;;20.40;15.30;;;;;;;-0.77;100.00;98689.59;109555;1251;73619;-68
2023/11/21 07:03:12;;;;;;;19.30;15.10;;;;;;;-0.67;100.00;98691.79;109516;1251;67785;-68
2023/11/21 07:05:38;;;;;;;18.40;15.70;;;;;;;-0.68;100.00;98696.89;109451;1251;72325;-69
2023/11/21 07:08:05;;;;;;;17.00;15.30;;;;;;;-0.71;100.00;98698.86;109511;1251;60825;-68
2023/11/21 07:10:32;;;;;;;15.80;14.10;;;;;;;-0.73;100.00;98699.00;109472;1250;60209;-68
2023/11/21 07:12:58;;;;;;;18.20;16.00;;;;;;;-0.73;100.00;98697.41;109552;1251;74543;-68
2023/11/21 07:15:25;;;;;;;18.10;14.80;;;;;;;-0.72;100.00;98698.58;109553;1251;58965;-68
2023/11/21 07:17:53;;;;;;;16.60;14.90;;;;;;;-0.70;100.00;98701.21;109501;1251;72488;-68
2023/11/21 07:20:21;;;;;;;16.00;14.30;;;;;;;-0.69;100.00;98700.11;109427;1250;61048;-66
2023/11/21 07:22:47;;;;;;;22.60;16.70;;;;;;;-0.69;100.00;98703.87;109448;1251;60158;-68
2023/11/21 07:25:14;;;;;;;17.70;14.70;;;;;;;-0.67;100.00;98701.48;109473;1250;73516;-68
2023/11/21 07:27:40;;;;;;;15.80;14.20;;;;;;;-0.66;100.00;98700.20;109574;1250;67962;-68
2023/11/21 07:30:09;;;;;;;18.60;15.60;;;;;;;-0.64;100.00;98699.18;109486;1250;71377;-68
2023/11/21 07:32:37;;;;;;;18.20;15.30;;;;;;;-0.62;100.00;98700.23;109493;1250;59549;-70
2023/11/21 07:35:04;;;;;;;22.50;15.50;;;;;;;-0.60;100.00;98695.91;109642;1251;59650;-67
2023/11/21 07:37:30;;;;;;;20.40;14.90;;;;;;;-0.47;100.00;98694.33;109618;1250;73371;-69
2023/11/21 07:39:57;;;;;;;23.50;16.50;;;;;;;-0.40;100.00;98690.98;109579;1251;67571;-69
2023/11/21 07:42:26;;;;;;;17.40;15.60;;;;;;;-0.48;100.00;98695.70;109502;1251;72465;-68
2023/11/21 07:44:52;;;;;;;20.10;16.20;;;;;;;-0.45;100.00;98694.35;109637;1251;61211;-69
2023/11/21 07:47:19;;;;;;;16.10;14.40;;;;;;;-0.33;100.00;98691.44;109617;1251;58932;-68
2023/11/21 07:49:47;;;;;;;14.90;13.40;;;;;;;-0.31;100.00;98681.52;109660;1251;73165;-68
2023/11/21 07:52:15;;;;;;;17.50;15.70;;;;;;;-0.30;100.00;98680.27;109644;1251;66794;-68
2023/11/21 07:54:42;;;;;;;18.30;15.40;;;;;;;-0.47;100.00;98676.92;109654;1251;72317;-69
2023/11/21 07:57:11;;;;;;;16.10;14.40;;;;;;;-0.52;100.00;98679.42;109656;1250;58930;-68
2023/11/21 07:59:38;;;;;;;16.80;15.10;;;;;;;-0.53;100.00;98679.31;109612;1251;59408;-69
2023/11/21 08:02:04;;;;;;;16.00;14.30;;;;;;;-0.52;100.00;98680.52;109602;1251;74442;-68
2023/11/21 08:04:32;;;;;;;17.20;15.50;;;;;;;-0.53;100.00;98681.61;109633;1251;67795;-69
2023/11/21 08:07:01;;;;;;;17.30;15.40;;;;;;;-0.53;100.00;98684.05;109589;1250;72737;-68
2023/11/21 08:09:29;;;;;;;17.20;15.40;;;;;;;-0.52;100.00;98687.95;109611;1251;61015;-69
2023/11/21 08:11:56;;;;;;;18.80;15.00;;;;;;;-0.50;100.00;98695.48;109597;1250;59077;-68
2023/11/21 08:14:25;;;;;;;15.70;14.00;;;;;;;-0.49;100.00;98696.58;109685;1251;75329;-68
2023/11/21 08:16:52;;;;;;;17.50;14.70;;;;;;;-0.47;100.00;98695.41;109636;1250;66608;-68
2023/11/21 08:19:18;;;;;;;14.50;13.10;;;;;;;-0.46;100.00;98689.94;109639;1251;72475;-68
2023/11/21 08:21:45;;;;;;;14.70;13.10;;;;;;;-0.33;100.00;98686.92;109637;1251;60894;-68
2023/11/21 08:24:12;;;;;;;17.00;15.20;;;;;;;-0.40;100.00;98683.88;109612;1250;59075;-68
2023/11/21 08:26:38;;;;;;;15.50;13.80;;;;;;;-0.43;100.00;98688.81;109622;1250;59518;-68
2023/11/21 08:29:06;;;;;;;16.70;14.90;;;;;;;-0.42;100.00;98693.48;109695;1250;59026;-68
2023/11/21 08:31:33;;;;;;;17.60;15.80;;;;;;;-0.43;100.00;98694.20;109619;1251;71194;-68
2023/11/21 08:34:02;;;;;;;16.00;14.30;;;;;;;-0.43;100.00;98696.77;109605;1251;61006;-68
2023/11/21 08:36:31;;;;;;;16.40;14.70;;;;;;;-0.42;100.00;98695.36;109638;1251;59243;-68
2023/11/21 08:38:57;;;;;;;16.80;15.00;;;;;;;-0.41;100.00;98698.20;109614;1251;73169;-67
2023/11/21 08:41:24;;;;;;;17.20;15.40;;;;;;;-0.41;100.00;98696.82;109638;1254;67873;-68
2023/11/21 08:43:51;;;;;;;16.70;15.00;;;;;;;-0.41;100.00;98697.70;109636;1251;72425;-68
2023/11/21 08:46:18;;;;;;;16.00;14.40;;;;;;;-0.40;100.00;98700.10;109593;1251;60282;-68
2023/11/21 08:48:45;;;;;;;16.30;14.50;;;;;;;-0.39;100.00;98701.02;109627;1251;60374;-67
2023/11/21 08:51:12;;;;;;;16.60;14.70;;;;;;;-0.38;100.00;98699.17;109633;1250;73415;-68
2023/11/21 08:53:38;;;;;;;16.60;14.90;;;;;;;-0.38;100.00;98698.30;109613;1251;66330;-68
2023/11/21 08:56:06;;;;;;;18.80;15.40;;;;;;;-0.36;100.00;98703.77;109581;1251;59039;-68
2023/11/21 08:58:32;;;;;;;17.70;15.50;;;;;;;-0.36;100.00;98706.86;109520;1254;61241;-69
2023/11/21 09:00:59;;;;;;;16.20;14.50;;;;;;;-0.36;100.00;98702.73;109653;1251;60106;-69
2023/11/21 09:03:26;;;;;;;18.00;16.10;;;;;;;-0.36;100.00;98703.42;109646;1251;74850;-68
2023/11/21 09:05:53;;;;;;;20.00;15.70;;;;;;;-0.36;100.00;98696.63;109649;1251;66886;-68
2023/11/21 09:08:21;;;;;;;17.70;15.80;;;;;;;-0.35;100.00;98692.89;109620;1251;71472;-68
2023/11/21 09:10:48;;;;;;;17.70;15.90;;;;;;;-0.33;100.00;98697.59;109604;1251;61210;-68
2023/11/21 09:13:16;;;;;;;19.30;16.70;;;;;;;-0.31;100.00;98690.46;109685;1251;60360;-68
2023/11/21 09:15:46;;;;;;;17.50;15.50;;;;;;;-0.31;100.00;98685.38;109672;1251;74427;-68
2023/11/21 09:18:15;;;;;;;18.10;16.10;;;;;;;-0.31;100.00;98683.98;109657;1251;67607;-69
2023/11/21 09:20:43;;;;;;;24.20;16.80;;;;;;;-0.32;100.00;98683.16;109631;1251;71695;-69
2023/11/21 09:23:10;;;;;;;23.50;17.50;;;;;;;-0.30;100.00;98680.44;109649;1251;61229;-69
2023/11/21 09:25:37;;;;;;;19.80;17.00;;;;;;;-0.29;100.00;98679.15;109644;1251;60089;-68
2023/11/21 09:28:07;;;;;;;19.90;16.70;;;;;;;-0.26;100.00;98678.39;109627;1250;74458;-69
2023/11/21 09:30:35;;;;;;;25.60;18.90;;;;;;;-0.24;100.00;98687.08;109653;1251;66790;-68
2023/11/21 09:33:02;;;;;;;22.70;17.90;;;;;;;-0.21;100.00;98694.84;109583;1251;71357;-69
2023/11/21 09:35:29;;;;;;;22.40;17.90;;;;;;;-0.19;100.00;98698.40;109649;1251;59967;-69
2023/11/21 09:37:55;;;;;;;21.80;16.90;;;;;;;-0.18;100.00;98697.09;109607;1251;59316;-68
2023/11/21 09:40:22;;;;;;;37.30;21.00;;;;;;;-0.18;100.00;98693.05;109595;1251;59501;-68
2023/11/21 09:42:56;;;;;;;37.00;20.90;;;;;;;-0.17;100.00;98695.27;109603;1251;67728;-68
2023/11/21 09:45:31;;;;;;;28.10;19.10;;;;;;;-0.16;100.00;98688.40;109632;1251;71170;-68
2023/11/21 09:47:57;;;;;;;24.70;18.20;;;;;;;-0.17;100.00;98687.55;109558;1251;59678;-68
2023/11/21 09:50:26;;;;;;;22.60;17.70;;;;;;;-0.17;100.00;98682.52;109641;1251;59043;-68
2023/11/21 09:53:14;;;;;;;21.50;17.00;;;;;;;-0.16;100.00;98684.66;109656;1251;226786;-68
2023/11/21 09:55:43;;;;;;;20.80;16.90;;;;;;;-0.14;100.00;98686.14;109517;1251;67801;-68
2023/11/21 09:58:12;;;;;;;16.80;15.00;;;;;;;-0.14;100.00;98683.52;109547;1253;70269;-69
2023/11/21 10:00:42;;;;;;;22.70;18.20;;;;;;;-0.14;100.00;98678.29;109553;1251;58912;-68
2023/11/21 10:03:09;;;;;;;22.60;16.80;;;;;;;-0.13;100.00;98673.35;109679;1254;58975;-68
2023/11/21 10:05:36;;;;;;;22.70;17.80;;;;;;;-0.13;100.00;98677.86;109593;1251;73441;-68
2023/11/21 10:08:09;;;;;;;22.50;17.80;;;;;;;-0.13;100.00;98680.94;109617;1250;68105;-70
2023/11/21 10:10:37;;;;;;;19.60;16.80;;;;;;;-0.12;100.00;98693.14;109673;1250;72345;-69
2023/11/21 10:13:07;;;;;;;19.20;16.50;;;;;;;-0.13;100.00;98695.09;109520;1251;59951;-69
2023/11/21 10:15:34;;;;;;;17.60;14.90;;;;;;;-0.13;100.00;98697.67;109654;1251;60527;-69
2023/11/21 10:18:02;;;;;;;19.60;16.00;;;;;;;-0.12;100.00;98690.79;109707;1251;74665;-69
2023/11/21 10:20:30;;;;;;;22.50;16.90;;;;;;;-0.10;100.00;98685.23;109616;1251;67252;-69
2023/11/21 10:22:57;;;;;;;20.20;15.90;;;;;;;-0.07;100.00;98690.94;109559;1251;71494;-69
2023/11/21 10:25:23;;;;;;;19.00;15.90;;;;;;;-0.05;100.00;98695.64;109621;1251;60913;-69
2023/11/21 10:27:57;;;;;;;20.80;16.00;;;;;;;-0.03;100.00;98697.20;109596;1251;60134;-69
2023/11/21 10:30:28;;;;;;;18.30;15.80;;;;;;;-0.01;100.00;98696.23;109622;1251;73432;-69
2023/11/21 10:32:58;;;;;;;19.50;17.00;;;;;;;0.01;100.00;98695.20;109619;1251;66547;-69
2023/11/21 10:35:25;;;;;;;19.70;16.40;;;;;;;0.03;100.00;98693.54;109628;1251;72659;-69
2023/11/21 10:37:59;;;;;;;21.50;17.60;;;;;;;0.04;100.00;98697.42;109561;1251;59651;-69
2023/11/21 10:40:29;;;;;;;17.40;15.20;;;;;;;0.05;100.00;98698.23;109645;1251;60266;-69
2023/11/21 10:42:58;;;;;;;21.30;17.30;;;;;;;0.05;100.00;98699.07;109657;1251;75040;-68
2023/11/21 10:45:25;;;;;;;23.10;17.60;;;;;;;0.06;100.00;98701.97;109450;1251;66578;-69
2023/11/21 10:47:56;;;;;;;18.50;16.20;;;;;;;0.07;100.00;98696.65;109598;1251;74066;-69
2023/11/21 10:50:23;;;;;;;19.20;16.30;;;;;;;0.08;100.00;98696.70;109622;1251;59642;-68
2023/11/21 10:52:50;;;;;;;18.20;14.90;;;;;;;0.09;100.00;98696.81;109596;1251;60328;-68
2023/11/21 10:55:18;;;;;;;19.40;15.70;;;;;;;0.10;100.00;98698.77;109477;1256;73340;-69
2023/11/21 10:57:49;;;;;;;18.70;16.80;;;;;;;0.11;100.00;98699.83;109652;1251;66829;-69
2023/11/21 11:00:16;;;;;;;21.80;16.50;;;;;;;0.11;100.00;98701.03;109459;1251;72485;-69
2023/11/21 11:02:43;;;;;;;18.60;14.90;;;;;;;0.10;100.00;98700.91;109613;1250;60862;-69
2023/11/21 11:05:11;;;;;;;19.90;16.50;;;;;;;0.09;100.00;98701.20;109545;1251;60234;-69